Time;durP1;ratioP1;P1;durP2;ratioP2;P2;SDS_P1;SDS_P2;PMS_P1;PMS_P2;Temp;Humidity;BMP_temperature;BMP_pressure;BME280_temperature;BME280_humidity;BME280_pressure;Samples;Min_cycle;Max_cycle;Signal;HPM_P1;HPM_P2
2023/06/21 00:01:38;;;;;;;;;;;;;;;22.07;77.76;98124.34;7367837;19;20355;-72
2023/06/21 00:04:05;;;;;;;;;;;;;;;22.00;78.37;98131.72;7372639;19;19918;-74
2023/06/21 00:06:34;;;;;;;;;;;;;;;21.96;77.82;98138.66;7369816;19;20373;-70
2023/06/21 00:09:04;;;;;;;;;;;;;;;21.92;77.52;98135.59;7373607;19;20448;-73
2023/06/21 00:11:31;;;;;;;;;;;;;;;21.90;77.66;98132.31;7365543;19;19925;-72
2023/06/21 00:13:58;;;;;;;;;;;;;;;21.89;77.64;98128.00;7371655;19;19943;-74
2023/06/21 00:16:24;;;;;;;;;;;;;;;21.86;77.19;98122.25;7365132;19;19923;-74
2023/06/21 00:18:51;;;;;;;;;;;;;;;21.87;77.65;98118.50;7372598;19;19930;-74
2023/06/21 00:21:18;;;;;;;;;;;;;;;21.87;76.67;98115.81;7371987;19;20034;-74
2023/06/21 00:23:44;;;;;;;;;;;;;;;21.87;76.46;98119.31;7365605;19;19923;-74
2023/06/21 00:26:11;;;;;;;;;;;;;;;21.93;75.95;98106.78;7371838;19;19955;-77
2023/06/21 00:28:38;;;;;;;;;;;;;;;21.79;76.84;98111.59;7367100;19;20359;-74
2023/06/21 00:31:08;;;;;;;;;;;;;;;21.85;76.73;98107.16;7374629;19;19999;-73
2023/06/21 00:33:35;;;;;;;;;;;;;;;21.90;76.84;98121.53;7363777;19;19929;-73
2023/06/21 00:36:02;;;;;;;;;;;;;;;21.85;76.87;98109.84;7371036;19;19923;-73
2023/06/21 00:38:34;;;;;;;;;;;;;;;21.72;77.59;98120.84;7367963;19;19933;-73
2023/06/21 00:41:02;;;;;;;;;;;;;;;21.80;77.54;98125.88;7372466;19;19926;-73
2023/06/21 00:43:29;;;;;;;;;;;;;;;21.67;77.42;98129.66;7365309;19;19919;-72
2023/06/21 00:45:57;;;;;;;;;;;;;;;21.68;77.41;98131.28;7371278;19;19919;-74
2023/06/21 00:48:28;;;;;;;;;;;;;;;21.65;77.91;98126.34;7367602;19;19919;-73
2023/06/21 00:50:57;;;;;;;;;;;;;;;21.54;78.11;98117.22;7370253;19;19955;-74
2023/06/21 00:53:24;;;;;;;;;;;;;;;21.55;78.43;98120.72;7361557;19;19931;-73
2023/06/21 00:55:52;;;;;;;;;;;;;;;21.58;78.21;98125.63;7367497;19;19922;-73
2023/06/21 00:58:21;;;;;;;;;;;;;;;21.52;78.24;98132.78;7374139;19;20009;-74
2023/06/21 01:00:52;;;;;;;;;;;;;;;21.40;78.07;98131.94;7372351;19;19931;-74
2023/06/21 01:03:19;;;;;;;;;;;;;;;21.44;78.53;98136.63;7368812;19;19930;-73
2023/06/21 01:05:53;;;;;;;;;;;;;;;21.44;77.89;98143.88;7370123;19;19925;-74
2023/06/21 01:08:30;;;;;;;;;;;;;;;21.44;78.35;98139.31;7369242;19;19911;-72
2023/06/21 01:11:07;;;;;;;;;;;;;;;21.48;78.15;98139.66;7369294;19;19919;-74
2023/06/21 01:13:50;;;;;;;;;;;;;;;21.39;78.03;98141.06;7361282;19;20009;-74
2023/06/21 01:16:17;;;;;;;;;;;;;;;21.37;78.34;98146.63;7370582;19;19922;-74
2023/06/21 01:18:47;;;;;;;;;;;;;;;21.42;78.15;98149.47;7365523;19;19923;-74
2023/06/21 01:21:16;;;;;;;;;;;;;;;21.37;78.51;98152.00;7370482;19;20294;-74
2023/06/21 01:23:46;;;;;;;;;;;;;;;21.37;78.53;98156.59;7361566;19;19919;-74
2023/06/21 01:26:29;;;;;;;;;;;;;;;21.34;78.79;98157.88;7370453;19;20322;-74
2023/06/21 01:29:06;;;;;;;;;;;;;;;21.35;78.48;98164.88;7371483;19;19922;-73
2023/06/21 01:31:33;;;;;;;;;;;;;;;21.39;78.22;98165.28;7364164;19;19943;-74
2023/06/21 01:33:59;;;;;;;;;;;;;;;21.34;78.90;98170.50;7369701;19;19915;-74
2023/06/21 01:36:26;;;;;;;;;;;;;;;21.34;78.75;98174.00;7368012;19;19933;-72
2023/06/21 01:38:53;;;;;;;;;;;;;;;21.32;78.90;98173.41;7372417;19;19915;-73
2023/06/21 01:41:20;;;;;;;;;;;;;;;21.30;78.56;98167.47;7368909;19;19935;-73
2023/06/21 01:43:47;;;;;;;;;;;;;;;21.35;78.74;98159.50;7361308;19;19915;-74
2023/06/21 01:46:13;;;;;;;;;;;;;;;21.26;78.85;98172.47;7367288;19;19925;-74
2023/06/21 01:48:40;;;;;;;;;;;;;;;21.34;78.76;98170.50;7366724;19;19931;-73
2023/06/21 01:51:07;;;;;;;;;;;;;;;21.34;78.56;98179.38;7371566;19;19925;-74
2023/06/21 01:53:34;;;;;;;;;;;;;;;21.24;79.16;98179.13;7365200;19;19929;-74
2023/06/21 01:56:02;;;;;;;;;;;;;;;21.15;79.37;98183.19;7372421;19;19926;-70
2023/06/21 01:58:28;;;;;;;;;;;;;;;21.14;79.43;98186.91;7364043;19;19915;-72
2023/06/21 02:00:56;;;;;;;;;;;;;;;20.98;80.77;98197.25;7367338;19;19918;-75
2023/06/21 02:03:23;;;;;;;;;;;;;;;21.13;79.85;98196.88;7365354;19;20300;-75
2023/06/21 02:05:51;;;;;;;;;;;;;;;21.16;79.51;98200.97;7367783;19;19922;-72
2023/06/21 02:08:17;;;;;;;;;;;;;;;21.20;78.63;98207.56;7370476;19;19929;-73
2023/06/21 02:10:45;;;;;;;;;;;;;;;21.17;79.45;98206.13;7363503;19;19947;-72
2023/06/21 02:13:12;;;;;;;;;;;;;;;21.17;79.07;98216.06;7365608;19;19945;-74
2023/06/21 02:18:45;;;;;;;;;;;;;;;21.13;79.19;98225.63;7357434;19;19934;-73
2023/06/21 02:21:15;;;;;;;;;;;;;;;21.11;78.85;98223.16;7369387;19;19997;-73
2023/06/21 02:23:42;;;;;;;;;;;;;;;21.13;79.02;98233.72;7360452;19;19914;-73
2023/06/21 02:26:10;;;;;;;;;;;;;;;21.10;78.72;98229.59;7345419;19;19923;-75
2023/06/21 02:28:41;;;;;;;;;;;;;;;21.19;78.30;98236.28;7354948;19;19940;-71
2023/06/21 02:31:07;;;;;;;;;;;;;;;21.15;78.22;98227.06;7368664;19;20311;-74
2023/06/21 02:33:34;;;;;;;;;;;;;;;21.19;78.23;98227.41;7346760;19;20283;-72
2023/06/21 02:36:01;;;;;;;;;;;;;;;20.95;78.50;98231.88;7359446;19;19915;-74
2023/06/21 02:38:28;;;;;;;;;;;;;;;20.66;79.09;98220.00;7363606;19;19925;-73
2023/06/21 02:40:55;;;;;;;;;;;;;;;20.74;80.00;98220.53;7368363;19;19915;-74
2023/06/21 02:43:23;;;;;;;;;;;;;;;20.81;79.31;98223.16;7360491;19;20361;-73
2023/06/21 02:45:51;;;;;;;;;;;;;;;20.94;78.90;98222.97;7361494;19;19926;-75
2023/06/21 02:48:18;;;;;;;;;;;;;;;20.81;79.80;98218.59;7365877;19;19941;-75
2023/06/21 02:50:45;;;;;;;;;;;;;;;20.82;78.94;98224.78;7357018;19;19924;-74
2023/06/21 02:53:12;;;;;;;;;;;;;;;20.73;78.75;98226.97;7365348;19;19934;-73
2023/06/21 02:55:40;;;;;;;;;;;;;;;20.88;78.33;98226.59;7361700;19;19931;-74
2023/06/21 02:58:07;;;;;;;;;;;;;;;20.81;78.73;98220.47;7375231;19;19918;-74
2023/06/21 03:00:36;;;;;;;;;;;;;;;20.83;78.64;98221.06;7367993;19;19950;-74
2023/06/21 03:03:03;;;;;;;;;;;;;;;20.87;78.44;98224.91;7372136;19;20654;-72
2023/06/21 03:05:29;;;;;;;;;;;;;;;21.01;77.84;98229.09;7364669;19;19956;-72
2023/06/21 03:07:57;;;;;;;;;;;;;;;21.14;77.10;98238.03;7370413;19;21216;-72
2023/06/21 03:10:23;;;;;;;;;;;;;;;21.15;76.94;98245.06;7370173;19;19923;-72
2023/06/21 03:12:50;;;;;;;;;;;;;;;21.07;77.43;98256.16;7368680;19;19923;-73
2023/06/21 03:15:20;;;;;;;;;;;;;;;20.95;78.04;98256.88;7373506;19;19934;-73
2023/06/21 03:17:47;;;;;;;;;;;;;;;20.95;77.45;98254.19;7369233;19;19940;-73
2023/06/21 03:20:15;;;;;;;;;;;;;;;20.91;78.12;98261.09;7372923;19;20668;-74
2023/06/21 03:22:43;;;;;;;;;;;;;;;20.88;78.06;98253.47;7364343;19;20020;-74
2023/06/21 03:25:14;;;;;;;;;;;;;;;20.97;77.64;98265.56;7371770;19;20365;-72
2023/06/21 03:27:43;;;;;;;;;;;;;;;20.92;78.00;98275.34;7369095;19;19918;-73
2023/06/21 03:30:11;;;;;;;;;;;;;;;21.01;77.83;98282.91;7374899;19;19923;-71
2023/06/21 03:32:46;;;;;;;;;;;;;;;21.17;76.63;98288.69;7369618;19;19943;-75
2023/06/21 03:35:16;;;;;;;;;;;;;;;21.32;75.65;98291.00;7374579;19;19926;-74
2023/06/21 03:37:43;;;;;;;;;;;;;;;21.23;75.53;98291.31;7368558;19;19922;-74
2023/06/21 03:40:13;;;;;;;;;;;;;;;21.20;76.78;98294.47;7370981;19;19921;-72
2023/06/21 03:42:41;;;;;;;;;;;;;;;21.19;77.87;98297.34;7364885;19;19918;-73
2023/06/21 03:45:08;;;;;;;;;;;;;;;21.36;77.47;98302.97;7373772;19;19923;-74
2023/06/21 03:47:36;;;;;;;;;;;;;;;21.44;76.97;98306.19;7369269;19;19926;-72
2023/06/21 03:50:03;;;;;;;;;;;;;;;21.42;77.24;98331.69;7376387;19;19943;-74
2023/06/21 03:52:31;;;;;;;;;;;;;;;21.14;78.66;98396.75;7370272;19;19986;-74
2023/06/21 03:54:58;;;;;;;;;;;;;;;21.03;78.08;98458.31;7371201;19;21709;-76
2023/06/21 03:57:25;;;;;;;;;;;;;;;21.15;77.58;98455.72;7370697;19;19923;-70
2023/06/21 03:59:53;;;;;;;;;;;;;;;20.93;80.63;98447.25;7369427;19;19918;-70
2023/06/21 04:02:21;;;;;;;;;;;;;;;20.81;81.43;98457.88;7372801;19;20312;-70
2023/06/21 04:04:48;;;;;;;;;;;;;;;20.57;82.64;98424.56;7370331;19;19962;-71
2023/06/21 04:07:18;;;;;;;;;;;;;;;20.59;81.92;98427.88;7369856;19;19922;-71
2023/06/21 04:09:47;;;;;;;;;;;;;;;20.43;83.69;98419.47;7369732;19;19943;-71
2023/06/21 04:12:14;;;;;;;;;;;;;;;20.44;83.62;98399.66;7372999;19;19927;-72
2023/06/21 04:14:40;;;;;;;;;;;;;;;20.45;83.78;98410.16;7362089;19;20329;-71
2023/06/21 04:17:07;;;;;;;;;;;;;;;20.31;84.66;98384.44;7372924;19;20009;-72
2023/06/21 04:19:34;;;;;;;;;;;;;;;20.37;83.76;98381.69;7364927;19;19923;-70
2023/06/21 04:22:01;;;;;;;;;;;;;;;20.41;84.26;98375.91;7372451;19;19918;-70
2023/06/21 04:24:27;;;;;;;;;;;;;;;20.31;85.27;98360.25;7369236;19;19927;-70
2023/06/21 04:26:57;;;;;;;;;;;;;;;20.41;84.43;98363.28;7369249;19;20369;-71
2023/06/21 04:29:25;;;;;;;;;;;;;;;20.51;84.44;98368.16;7368772;19;19918;-70
2023/06/21 04:31:52;;;;;;;;;;;;;;;20.54;84.67;98367.75;7368081;19;19926;-69
2023/06/21 04:34:19;;;;;;;;;;;;;;;20.53;84.97;98382.19;7369473;19;19921;-70
2023/06/21 04:36:47;;;;;;;;;;;;;;;20.60;85.03;98370.38;7364682;19;20378;-70
2023/06/21 04:39:17;;;;;;;;;;;;;;;20.61;85.11;98374.69;7372920;19;19930;-70
2023/06/21 04:41:46;;;;;;;;;;;;;;;20.68;85.03;98384.59;7367802;19;19937;-70
2023/06/21 04:44:13;;;;;;;;;;;;;;;20.65;85.30;98368.91;7367816;19;19923;-70
2023/06/21 04:46:39;;;;;;;;;;;;;;;20.76;85.43;98360.94;7362955;19;19915;-70
2023/06/21 04:49:07;;;;;;;;;;;;;;;20.81;85.33;98361.09;7362607;19;19923;-70
2023/06/21 04:51:33;;;;;;;;;;;;;;;20.94;85.42;98367.38;7363956;19;19922;-70
2023/06/21 04:54:00;;;;;;;;;;;;;;;20.91;85.43;98373.22;7369575;19;19922;-70
2023/06/21 04:56:27;;;;;;;;;;;;;;;21.02;85.92;98381.34;7369901;19;19918;-70
2023/06/21 04:58:54;;;;;;;;;;;;;;;21.11;85.04;98389.94;7367742;19;19933;-70
2023/06/21 05:01:21;;;;;;;;;;;;;;;21.04;85.03;98394.59;7369446;19;19921;-70
2023/06/21 05:03:48;;;;;;;;;;;;;;;21.11;85.03;98391.81;7361542;19;19954;-71
2023/06/21 05:06:14;;;;;;;;;;;;;;;21.16;85.29;98397.34;7370157;19;20661;-71
2023/06/21 05:08:41;;;;;;;;;;;;;;;21.27;84.57;98393.91;7369118;19;19919;-71
2023/06/21 05:11:08;;;;;;;;;;;;;;;21.35;84.67;98396.28;7371395;19;19926;-71
2023/06/21 05:13:35;;;;;;;;;;;;;;;21.38;84.46;98400.44;7370250;19;19933;-71
2023/06/21 05:16:01;;;;;;;;;;;;;;;21.42;85.28;98393.56;7374271;19;19929;-71
2023/06/21 05:18:28;;;;;;;;;;;;;;;21.43;83.50;98396.06;7373097;19;19966;-71
2023/06/21 05:20:55;;;;;;;;;;;;;;;21.51;83.41;98400.28;7365660;19;19922;-70
2023/06/21 05:23:22;;;;;;;;;;;;;;;21.48;83.00;98401.59;7365599;19;19919;-70
2023/06/21 05:25:49;;;;;;;;;;;;;;;21.60;83.52;98406.19;7360536;19;19925;-70
2023/06/21 05:28:15;;;;;;;;;;;;;;;21.61;83.26;98397.88;7367944;19;19998;-70
2023/06/21 05:30:42;;;;;;;;;;;;;;;21.61;84.11;98391.69;7367874;19;19915;-70
2023/06/21 05:33:09;;;;;;;;;;;;;;;21.67;83.28;98386.22;7365701;19;19921;-70
2023/06/21 05:35:36;;;;;;;;;;;;;;;21.67;83.76;98383.53;7367689;19;20650;-70
2023/06/21 05:38:03;;;;;;;;;;;;;;;21.70;83.54;98385.78;7365095;19;20369;-70
2023/06/21 05:40:29;;;;;;;;;;;;;;;21.77;83.36;98399.13;7367938;19;20284;-70
2023/06/21 05:43:01;;;;;;;;;;;;;;;21.88;83.37;98398.38;7365988;19;19934;-70
2023/06/21 05:45:28;;;;;;;;;;;;;;;21.94;83.20;98395.81;7371944;19;19994;-70
2023/06/21 05:47:56;;;;;;;;;;;;;;;22.08;82.77;98405.34;7366890;19;19919;-70
2023/06/21 05:50:23;;;;;;;;;;;;;;;22.09;81.13;98415.06;7373286;19;19922;-70
2023/06/21 05:52:50;;;;;;;;;;;;;;;22.25;80.64;98410.94;7366148;19;19923;-70
2023/06/21 05:55:17;;;;;;;;;;;;;;;22.30;80.83;98400.28;7368849;19;19923;-70
2023/06/21 05:57:43;;;;;;;;;;;;;;;22.35;81.52;98393.16;7369556;19;20019;-70
2023/06/21 06:00:11;;;;;;;;;;;;;;;22.50;81.11;98398.09;7369660;19;19910;-70
2023/06/21 06:02:40;;;;;;;;;;;;;;;22.52;80.66;98396.00;7368965;19;19926;-70
2023/06/21 06:05:07;;;;;;;;;;;;;;;22.54;81.10;98393.09;7370181;19;19918;-70
2023/06/21 06:07:33;;;;;;;;;;;;;;;22.55;81.27;98400.91;7373329;19;19918;-70
2023/06/21 06:10:00;;;;;;;;;;;;;;;22.60;80.95;98396.72;7363895;19;19941;-71
2023/06/21 06:12:27;;;;;;;;;;;;;;;22.70;81.60;98372.69;7368184;19;19927;-70
2023/06/21 06:14:53;;;;;;;;;;;;;;;22.65;80.50;98365.31;7367973;19;19925;-70
2023/06/21 06:17:20;;;;;;;;;;;;;;;22.81;78.57;98377.25;7370633;19;19928;-71
2023/06/21 06:19:47;;;;;;;;;;;;;;;23.08;79.25;98387.59;7371631;19;19931;-71
2023/06/21 06:22:14;;;;;;;;;;;;;;;23.18;76.75;98385.13;7369838;19;19918;-71
2023/06/21 06:24:41;;;;;;;;;;;;;;;23.35;78.42;98387.91;7366343;19;19931;-71
2023/06/21 06:27:08;;;;;;;;;;;;;;;23.41;78.65;98386.97;7366480;19;19993;-70
2023/06/21 06:29:34;;;;;;;;;;;;;;;23.46;78.39;98384.38;7370637;19;19941;-72
2023/06/21 06:32:01;;;;;;;;;;;;;;;23.52;77.83;98385.28;7374415;19;20578;-72
2023/06/21 06:34:28;;;;;;;;;;;;;;;23.55;77.79;98377.53;7377255;19;19990;-72
2023/06/21 06:36:54;;;;;;;;;;;;;;;23.54;77.30;98381.28;7373088;19;19919;-71
2023/06/21 06:39:38;;;;;;;;;;;;;;;23.56;77.73;98376.44;7373857;19;19930;-71
2023/06/21 06:42:05;;;;;;;;;;;;;;;23.56;77.42;98379.16;7375857;19;19922;-72
2023/06/21 06:44:31;;;;;;;;;;;;;;;23.58;76.90;98385.13;7374093;19;19919;-72
2023/06/21 06:47:00;;;;;;;;;;;;;;;23.72;76.67;98382.19;7372694;19;19929;-73
2023/06/21 06:49:27;;;;;;;;;;;;;;;23.94;75.96;98390.47;7379069;19;19998;-73
2023/06/21 06:51:54;;;;;;;;;;;;;;;24.10;73.54;98395.06;7374272;19;19994;-73
2023/06/21 06:54:20;;;;;;;;;;;;;;;24.39;73.38;98403.16;7376648;19;19986;-73
2023/06/21 06:56:47;;;;;;;;;;;;;;;24.37;72.18;98403.38;7373441;19;19923;-74
2023/06/21 06:59:14;;;;;;;;;;;;;;;24.47;72.57;98405.47;7378996;19;19922;-73
2023/06/21 07:01:41;;;;;;;;;;;;;;;24.17;71.23;98417.38;7373936;19;19923;-74
2023/06/21 07:04:08;;;;;;;;;;;;;;;24.09;72.95;98409.63;7375478;19;19915;-73
2023/06/21 07:06:34;;;;;;;;;;;;;;;24.30;73.42;98406.25;7374926;19;19930;-73
2023/06/21 07:09:02;;;;;;;;;;;;;;;24.47;72.65;98411.69;7373840;19;19929;-74
2023/06/21 07:11:29;;;;;;;;;;;;;;;24.86;72.03;98408.28;7376316;19;19939;-74
2023/06/21 07:13:56;;;;;;;;;;;;;;;25.03;71.07;98400.13;7366619;19;19919;-75
2023/06/21 07:16:22;;;;;;;;;;;;;;;25.11;68.63;98415.94;7377002;19;19925;-73
2023/06/21 07:18:49;;;;;;;;;;;;;;;24.76;63.92;98414.34;7374968;19;19918;-72
2023/06/21 07:21:17;;;;;;;;;;;;;;;24.59;69.93;98414.31;7374305;19;19952;-74
2023/06/21 07:23:48;;;;;;;;;;;;;;;24.37;70.49;98406.09;7372817;19;20349;-73
2023/06/21 07:26:15;;;;;;;;;;;;;;;24.50;71.16;98394.97;7378174;19;20258;-75
2023/06/21 07:28:42;;;;;;;;;;;;;;;24.63;72.13;98384.91;7373953;19;19927;-74
2023/06/21 07:31:08;;;;;;;;;;;;;;;24.82;68.17;98388.97;7374337;19;20379;-74
2023/06/21 07:33:37;;;;;;;;;;;;;;;24.86;69.37;98390.13;7375053;19;19923;-74
2023/06/21 07:36:04;;;;;;;;;;;;;;;25.09;67.83;98394.53;7369399;19;19925;-75
2023/06/21 07:38:30;;;;;;;;;;;;;;;25.30;66.23;98395.63;7375845;19;20117;-73
2023/06/21 07:40:57;;;;;;;;;;;;;;;25.07;67.29;98393.97;7372785;19;19926;-75
2023/06/21 07:43:24;;;;;;;;;;;;;;;25.22;67.96;98392.53;7372189;19;19919;-74
2023/06/21 07:45:50;;;;;;;;;;;;;;;25.39;68.36;98399.56;7368753;19;19934;-74
2023/06/21 07:48:37;;;;;;;;;;;;;;;25.48;68.05;98399.13;7378284;19;20337;-74
2023/06/21 07:51:04;;;;;;;;;;;;;;;25.38;67.94;98395.22;7372123;19;19927;-75
2023/06/21 07:53:31;;;;;;;;;;;;;;;25.33;66.23;98403.28;7373787;19;19923;-75
2023/06/21 07:56:00;;;;;;;;;;;;;;;25.39;64.09;98404.97;7372566;19;19923;-75
2023/06/21 07:58:26;;;;;;;;;;;;;;;25.27;66.04;98398.84;7378702;19;20642;-75
2023/06/21 08:00:53;;;;;;;;;;;;;;;25.09;67.54;98409.94;7375079;19;19922;-73
2023/06/21 08:03:20;;;;;;;;;;;;;;;25.03;70.01;98419.88;7369920;19;20406;-72
2023/06/21 08:05:46;;;;;;;;;;;;;;;24.74;73.42;98409.16;7372197;19;19923;-72
2023/06/21 08:08:17;;;;;;;;;;;;;;;24.56;74.46;98406.69;7372986;19;19919;-72
2023/06/21 08:10:43;;;;;;;;;;;;;;;24.43;76.02;98413.22;7373840;19;20626;-72
2023/06/21 08:13:10;;;;;;;;;;;;;;;24.96;75.93;98414.66;7367925;19;19937;-72
2023/06/21 08:15:37;;;;;;;;;;;;;;;25.37;70.77;98414.41;7378023;19;19925;-71
2023/06/21 08:18:03;;;;;;;;;;;;;;;25.48;73.46;98409.94;7370391;19;20709;-72
2023/06/21 08:20:32;;;;;;;;;;;;;;;25.52;73.83;98424.66;7374201;19;19933;-74
2023/06/21 08:22:58;;;;;;;;;;;;;;;25.36;71.20;98432.56;7373124;19;19915;-72
2023/06/21 08:25:25;;;;;;;;;;;;;;;25.15;69.79;98434.16;7372493;19;19918;-73
2023/06/21 08:27:52;;;;;;;;;;;;;;;25.09;71.42;98440.56;7367973;19;19922;-74
2023/06/21 08:30:19;;;;;;;;;;;;;;;24.86;68.84;98444.25;7376562;19;20601;-73
2023/06/21 08:32:46;;;;;;;;;;;;;;;24.77;71.32;98447.63;7371192;19;19925;-72
2023/06/21 08:35:12;;;;;;;;;;;;;;;24.60;70.86;98445.72;7372535;19;19918;-73
2023/06/21 08:37:39;;;;;;;;;;;;;;;24.42;70.01;98452.16;7375866;19;19927;-74
2023/06/21 08:40:07;;;;;;;;;;;;;;;24.23;70.33;98467.75;7374179;19;19921;-72
2023/06/21 08:42:33;;;;;;;;;;;;;;;24.14;68.26;98461.09;7370113;19;19986;-73
2023/06/21 08:45:00;;;;;;;;;;;;;;;24.04;67.98;98467.13;7371087;19;19919;-74
2023/06/21 08:47:28;;;;;;;;;;;;;;;23.93;68.42;98456.34;7372462;19;19919;-74
2023/06/21 08:49:57;;;;;;;;;;;;;;;23.81;66.71;98459.91;7370720;19;19923;-75
2023/06/21 08:52:23;;;;;;;;;;;;;;;23.88;65.93;98465.16;7373371;19;20907;-74
2023/06/21 08:54:53;;;;;;;;;;;;;;;23.76;66.33;98467.09;7372793;19;19918;-73
2023/06/21 08:57:21;;;;;;;;;;;;;;;23.81;67.96;98475.31;7372582;19;20472;-73
2023/06/21 08:59:54;;;;;;;;;;;;;;;23.70;67.78;98474.25;7371161;19;20333;-75
2023/06/21 09:02:23;;;;;;;;;;;;;;;23.64;68.32;98478.72;7366614;19;19919;-76
2023/06/21 09:04:49;;;;;;;;;;;;;;;23.63;67.97;98493.28;7368710;19;19943;-75
2023/06/21 09:07:16;;;;;;;;;;;;;;;23.54;67.31;98491.16;7371735;19;21212;-73
2023/06/21 09:09:44;;;;;;;;;;;;;;;23.62;68.18;98499.75;7371706;19;20013;-72
2023/06/21 09:12:11;;;;;;;;;;;;;;;23.61;67.64;98506.19;7371198;19;19927;-74
2023/06/21 09:14:38;;;;;;;;;;;;;;;23.41;69.77;98495.78;7372863;19;19926;-71
2023/06/21 09:17:07;;;;;;;;;;;;;;;23.34;70.22;98499.66;7369923;19;20006;-73
2023/06/21 09:19:35;;;;;;;;;;;;;;;23.10;71.55;98499.66;7371980;19;20608;-72
2023/06/21 09:22:04;;;;;;;;;;;;;;;22.78;74.39;98497.22;7372230;19;19922;-72
2023/06/21 09:24:30;;;;;;;;;;;;;;;22.59;76.81;98495.63;7372121;19;19930;-71
2023/06/21 09:26:58;;;;;;;;;;;;;;;22.41;79.24;98496.53;7373914;19;19982;-70
2023/06/21 09:29:25;;;;;;;;;;;;;;;22.35;79.29;98494.75;7375684;19;19914;-71
2023/06/21 09:31:51;;;;;;;;;;;;;;;21.97;80.89;98474.28;7371334;19;19930;-71
2023/06/21 09:34:18;;;;;;;;;;;;;;;21.81;81.67;98459.56;7370837;19;19921;-71
2023/06/21 09:36:44;;;;;;;;;;;;;;;22.01;81.35;98445.03;7368456;19;19914;-73
2023/06/21 09:39:11;;;;;;;;;;;;;;;21.92;81.88;98444.53;7372406;19;20601;-73
2023/06/21 09:41:38;;;;;;;;;;;;;;;21.77;82.79;98468.31;7372705;19;19926;-73
2023/06/21 09:44:05;;;;;;;;;;;;;;;21.77;83.98;98484.47;7372600;19;19926;-74
2023/06/21 09:46:32;;;;;;;;;;;;;;;21.77;84.88;98488.00;7374580;19;19919;-76
2023/06/21 09:49:08;;;;;;;;;;;;;;;21.78;84.74;98478.88;7373109;19;20347;-75
2023/06/21 09:51:45;;;;;;;;;;;;;;;21.34;86.61;98445.78;7374735;19;19919;-76
2023/06/21 09:54:12;;;;;;;;;;;;;;;21.14;87.78;98404.81;7380519;19;19922;-77
2023/06/21 09:56:39;;;;;;;;;;;;;;;21.29;87.25;98382.94;7373307;19;19974;-74
2023/06/21 09:59:16;;;;;;;;;;;;;;;21.51;85.92;98388.69;7369637;19;20345;-74
2023/06/21 10:01:47;;;;;;;;;;;;;;;21.47;86.34;98426.84;7373551;19;20435;-74
2023/06/21 10:04:15;;;;;;;;;;;;;;;21.53;86.29;98427.00;7373189;19;20002;-75
2023/06/21 10:06:54;;;;;;;;;;;;;;;21.57;85.71;98444.34;7377262;19;19918;-76
2023/06/21 10:09:21;;;;;;;;;;;;;;;21.45;84.83;98450.47;7374715;19;19918;-75
2023/06/21 10:11:54;;;;;;;;;;;;;;;21.30;86.46;98463.44;7370226;19;19915;-75
2023/06/21 10:14:22;;;;;;;;;;;;;;;21.49;86.36;98480.47;7377351;19;19918;-75
2023/06/21 10:16:50;;;;;;;;;;;;;;;21.43;86.89;98508.25;7377450;19;19915;-75
2023/06/21 10:19:17;;;;;;;;;;;;;;;21.48;87.46;98516.47;7373000;19;20362;-74
2023/06/21 10:21:44;;;;;;;;;;;;;;;21.48;87.31;98529.94;7379319;19;19919;-71
2023/06/21 10:24:13;;;;;;;;;;;;;;;21.39;87.81;98536.66;7372169;19;19914;-73
2023/06/21 10:26:40;;;;;;;;;;;;;;;21.51;86.46;98534.06;7372125;19;19919;-74
2023/06/21 10:29:06;;;;;;;;;;;;;;;21.46;86.51;98532.88;7375361;19;19933;-73
2023/06/21 10:31:33;;;;;;;;;;;;;;;21.56;85.88;98523.44;7375396;19;20269;-74
2023/06/21 10:34:00;;;;;;;;;;;;;;;21.53;85.99;98538.16;7373689;19;20395;-73
2023/06/21 10:36:30;;;;;;;;;;;;;;;21.43;86.88;98543.25;7379161;19;19925;-74
2023/06/21 10:38:59;;;;;;;;;;;;;;;21.56;86.15;98547.66;7374460;19;19922;-75
2023/06/21 10:41:26;;;;;;;;;;;;;;;21.70;85.89;98558.09;7368654;19;19921;-73
2023/06/21 10:43:53;;;;;;;;;;;;;;;21.57;87.91;98552.84;7367817;19;19923;-74
2023/06/21 10:46:19;;;;;;;;;;;;;;;21.82;87.00;98547.38;7374152;19;19919;-75
2023/06/21 10:48:46;;;;;;;;;;;;;;;22.01;86.63;98553.63;7369402;19;19923;-73
2023/06/21 10:51:13;;;;;;;;;;;;;;;22.16;86.88;98555.91;7375681;19;19923;-73
2023/06/21 10:53:40;;;;;;;;;;;;;;;22.42;87.36;98548.56;7374597;19;19949;-74
2023/06/21 10:56:07;;;;;;;;;;;;;;;22.63;87.28;98555.34;7373827;19;19919;-73
2023/06/21 10:58:34;;;;;;;;;;;;;;;22.78;86.56;98559.25;7369909;19;20525;-74
2023/06/21 11:01:02;;;;;;;;;;;;;;;22.97;86.06;98565.44;7373676;19;19944;-73
2023/06/21 11:03:28;;;;;;;;;;;;;;;23.16;85.94;98574.25;7372540;19;19951;-73
2023/06/21 11:05:55;;;;;;;;;;;;;;;23.32;84.62;98558.44;7375889;19;19933;-72
2023/06/21 11:08:32;;;;;;;;;;;;;;;23.42;85.11;98558.69;7380477;19;19923;-72
2023/06/21 11:10:58;;;;;;;;;;;;;;;23.54;84.44;98558.69;7376442;19;19926;-72
2023/06/21 11:13:38;;;;;;;;;;;;;;;23.54;83.39;98558.69;7371877;19;19923;-71
2023/06/21 11:16:10;;;;;;;;;;;;;;;23.72;77.27;98563.16;7370767;19;20355;-71
2023/06/21 11:18:36;;;;;;;;;;;;;;;23.97;82.73;98569.13;7375493;19;20398;-71
2023/06/21 11:21:06;;;;;;;;;;;;;;;24.23;81.53;98575.06;7377491;19;19919;-71
2023/06/21 11:23:47;;;;;;;;;;;;;;;24.48;80.68;98564.78;7369736;19;19918;-70
2023/06/21 11:26:14;;;;;;;;;;;;;;;24.58;79.04;98569.56;7376275;19;20397;-70
2023/06/21 11:28:48;;;;;;;;;;;;;;;24.74;78.94;98567.97;7376423;19;19922;-70
2023/06/21 11:31:19;;;;;;;;;;;;;;;24.66;77.64;98566.47;7367696;19;19919;-71
2023/06/21 11:33:47;;;;;;;;;;;;;;;24.75;77.59;98566.91;7372678;19;19911;-70
2023/06/21 11:36:14;;;;;;;;;;;;;;;24.74;75.75;98574.19;7376331;19;20249;-70
2023/06/21 11:38:47;;;;;;;;;;;;;;;24.70;76.01;98572.25;7376310;19;20002;-71
2023/06/21 11:41:33;;;;;;;;;;;;;;;24.82;76.77;98567.56;7373781;19;19923;-70
2023/06/21 11:43:59;;;;;;;;;;;;;;;24.94;75.24;98570.22;7374608;19;20412;-70
2023/06/21 11:46:26;;;;;;;;;;;;;;;25.13;76.76;98571.63;7373962;19;19935;-69
2023/06/21 11:48:59;;;;;;;;;;;;;;;25.29;76.40;98572.72;7367142;19;20652;-69
2023/06/21 11:51:29;;;;;;;;;;;;;;;25.45;73.44;98572.97;7368448;19;20341;-69
2023/06/21 11:53:58;;;;;;;;;;;;;;;25.72;76.40;98571.19;7372508;19;20349;-70
2023/06/21 11:56:30;;;;;;;;;;;;;;;25.48;69.78;98561.63;7370797;19;19921;-70
2023/06/21 11:58:58;;;;;;;;;;;;;;;25.49;74.76;98564.09;7375127;19;20016;-71
2023/06/21 12:01:25;;;;;;;;;;;;;;;26.09;74.00;98573.34;7375298;19;20335;-71
2023/06/21 12:03:58;;;;;;;;;;;;;;;26.43;71.29;98562.38;7368862;19;19925;-72
2023/06/21 12:06:26;;;;;;;;;;;;;;;25.96;71.24;98562.88;7369628;19;19941;-71
2023/06/21 12:08:57;;;;;;;;;;;;;;;26.26;68.62;98579.53;7362814;19;20385;-72
2023/06/21 12:11:24;;;;;;;;;;;;;;;26.12;68.61;98563.88;7371367;19;20006;-72
2023/06/21 12:13:51;;;;;;;;;;;;;;;25.86;70.62;98570.88;7365157;19;19933;-71
2023/06/21 12:16:18;;;;;;;;;;;;;;;26.01;69.27;98571.06;7375989;19;19922;-72
2023/06/21 12:18:44;;;;;;;;;;;;;;;26.40;72.31;98568.31;7377023;19;19990;-72
2023/06/21 12:21:11;;;;;;;;;;;;;;;26.47;69.55;98575.19;7373444;19;19936;-73
2023/06/21 12:23:38;;;;;;;;;;;;;;;26.23;69.25;98574.63;7365392;19;19935;-71
2023/06/21 12:26:05;;;;;;;;;;;;;;;25.80;67.63;98570.78;7371214;19;19929;-71
2023/06/21 12:28:33;;;;;;;;;;;;;;;25.93;69.21;98568.81;7369338;19;19926;-73
2023/06/21 12:31:02;;;;;;;;;;;;;;;25.78;65.58;98561.28;7374898;19;19915;-74
2023/06/21 12:33:30;;;;;;;;;;;;;;;26.43;71.74;98554.22;7374116;19;20345;-74
2023/06/21 12:36:16;;;;;;;;;;;;;;;26.83;68.42;98542.19;7371067;19;19915;-71
2023/06/21 12:38:47;;;;;;;;;;;;;;;26.85;69.07;98556.31;7373178;19;19926;-73
2023/06/21 12:41:15;;;;;;;;;;;;;;;26.65;68.35;98555.06;7371093;19;20051;-75
2023/06/21 12:43:42;;;;;;;;;;;;;;;26.62;66.47;98554.72;7370918;19;19923;-71
2023/06/21 12:46:09;;;;;;;;;;;;;;;26.42;71.28;98558.84;7372810;19;20237;-74
2023/06/21 12:48:36;;;;;;;;;;;;;;;26.25;70.28;98550.78;7373011;19;19938;-73
2023/06/21 12:51:03;;;;;;;;;;;;;;;26.21;71.19;98549.66;7373540;19;19922;-73
2023/06/21 12:53:30;;;;;;;;;;;;;;;26.22;65.54;98545.03;7368621;19;20415;-72
2023/06/21 12:56:07;;;;;;;;;;;;;;;26.18;65.96;98547.44;7369257;19;19923;-74